Terminal Aerodrome Forecast
Issued by NWS Duluth, MN

Home | Current Version | Previous Version | Text Only | Print | Product List | Glossary On
Versions: 1 2 3 4 5 6 7 8 9 10 11 12 13 14 15 16 17 18 19 20 21 22
000
FTUS43 KDLH 230539
TAFDLH
TAF
KDLH 230539Z 2306/2406 21011KT P6SM SKC WS020/21040KT
     FM231000 19006KT P6SM SKC WS020/21035KT
     FM231600 19012G22KT P6SM FEW150
     FM240100 20011KT P6SM SCT030=

USA.gov is the U.S. government's official web portal to all federal, state and local government web resources and services.